createdAt,value
2023-04-01T00:00:40.587Z,2.2
2023-04-01T00:06:24.502Z,4.2
2023-04-01T00:12:08.561Z,4.3
2023-04-01T00:17:53.006Z,2.7
2023-04-01T00:23:37.221Z,3.1
2023-04-01T00:29:21.166Z,3.4
2023-04-01T00:35:05.156Z,3.5
2023-04-01T00:40:50.578Z,2.9
2023-04-01T00:46:34.695Z,3.7
2023-04-01T00:52:21.593Z,3.9
2023-04-01T00:58:06.118Z,3
2023-04-01T01:03:50.226Z,3.1
2023-04-01T01:09:39.964Z,3.7
2023-04-01T01:15:27.927Z,1.9
2023-04-01T01:21:23.547Z,1.9
2023-04-01T01:27:08.572Z,1.7
2023-04-01T01:33:13.472Z,2.3
2023-04-01T01:38:58.771Z,2.7
2023-04-01T01:44:44.848Z,1.3
2023-04-01T01:50:29.986Z,2.3
2023-04-01T01:56:15.685Z,1.9
2023-04-01T02:02:01.072Z,1.2
2023-04-01T02:07:47.735Z,1.5
2023-04-01T02:13:34.918Z,1.1
2023-04-01T02:19:20.308Z,1.6
2023-04-01T02:25:06.949Z,1
2023-04-01T02:30:52.116Z,2.1
2023-04-01T02:36:36.324Z,1.8
2023-04-01T02:42:20.270Z,2
2023-04-01T02:48:05.262Z,2.8
2023-04-01T02:53:49.327Z,1.4
2023-04-01T02:59:33.369Z,1.2
2023-04-01T03:05:17.342Z,4.5
2023-04-01T03:11:03.466Z,3.9
2023-04-01T03:16:47.765Z,2.6
2023-04-01T03:22:31.709Z,2.4
2023-04-01T03:28:15.736Z,2.4
2023-04-01T03:33:59.866Z,2.9
2023-04-01T03:39:46.811Z,3.6
2023-04-01T03:45:31.974Z,3.5
2023-04-01T03:51:16.132Z,3.3
2023-04-01T03:57:00.297Z,2.3
2023-04-01T04:02:44.671Z,3.1
2023-04-01T04:08:28.807Z,4.3
2023-04-01T04:14:12.807Z,3
2023-04-01T04:19:56.875Z,4.2
2023-04-01T04:25:40.874Z,3.2
2023-04-01T04:31:27.216Z,4.2
2023-04-01T04:37:11.295Z,2.7
2023-04-01T04:42:55.390Z,5.4
2023-04-01T04:48:39.914Z,5.6
2023-04-01T04:54:25.026Z,4.3
2023-04-01T05:00:09.865Z,5.4
2023-04-01T05:05:57.973Z,4.1
2023-04-01T05:11:41.977Z,4.5
2023-04-01T05:17:25.932Z,4.7
2023-04-01T05:23:09.800Z,4.4
2023-04-01T05:28:54.039Z,4.3
2023-04-01T05:34:38.993Z,4.4
2023-04-01T05:40:23.091Z,3.4
2023-04-01T05:46:07.307Z,5
2023-04-01T05:51:51.425Z,3.6
2023-04-01T05:57:35.927Z,3.9
2023-04-01T06:03:20.573Z,4.6
2023-04-01T06:09:09.536Z,6.6
2023-04-01T06:14:58.567Z,4.2
2023-04-01T06:20:47.632Z,4.7
2023-04-01T06:26:35.234Z,5.8
2023-04-01T06:32:29.734Z,4.1
2023-04-01T06:38:22.296Z,5.4
2023-04-01T06:44:11.935Z,5.7
2023-04-01T06:50:00.926Z,5.2
2023-04-01T06:55:47.178Z,5.9
2023-04-01T07:01:34.262Z,4.5
2023-04-01T07:07:20.277Z,4.7
2023-04-01T07:13:07.225Z,3.7
2023-04-01T07:18:52.765Z,4.2
2023-04-01T07:24:38.650Z,3.6
2023-04-01T07:30:24.229Z,4.6
2023-04-01T07:36:13.601Z,3.7
2023-04-01T07:42:04.127Z,4.5
2023-04-01T07:48:00.567Z,4
2023-04-01T07:53:49.531Z,3.6
2023-04-01T07:59:37.691Z,3.2
2023-04-01T08:05:28.151Z,3.2
2023-04-01T08:11:17.097Z,4
2023-04-01T08:17:06.287Z,3
2023-04-01T08:22:53.543Z,3.4
2023-04-01T08:28:41.527Z,2.6
2023-04-01T08:34:28.292Z,3.5
2023-04-01T08:40:19.385Z,3.9
2023-04-01T08:46:10.298Z,2.5
2023-04-01T08:52:05.563Z,2.8
2023-04-01T08:57:58.857Z,3.6
2023-04-01T09:03:54.856Z,3.6
2023-04-01T09:09:50.073Z,2.8
2023-04-01T09:15:45.342Z,3
2023-04-01T09:21:40.546Z,2.8
2023-04-01T09:27:30.490Z,2.1
2023-04-01T09:33:26.170Z,1.6
2023-04-01T09:39:16.728Z,2
2023-04-01T09:45:02.176Z,1.4
2023-04-01T09:50:49.373Z,1.2
2023-04-01T09:56:51.981Z,1.1
2023-04-01T10:02:47.306Z,1.4
2023-04-01T10:08:46.259Z,1.2
2023-04-01T10:14:51.525Z,1.1
2023-04-01T10:20:58.931Z,1.1
2023-04-01T10:27:00.369Z,1
2023-04-01T10:32:58.760Z,1
2023-04-01T10:38:55.581Z,1.5
2023-04-01T10:44:51.301Z,0.9
2023-04-01T10:50:48.983Z,0.7
2023-04-01T10:56:51.323Z,1.4
2023-04-01T11:02:46.927Z,1
2023-04-01T11:08:42.131Z,1
2023-04-01T11:14:44.817Z,1.3
2023-04-01T11:20:54.037Z,1.3
2023-04-01T11:26:44.698Z,1.3
2023-04-01T11:32:36.119Z,1.2
2023-04-01T11:38:28.927Z,1.3
2023-04-01T11:44:24.125Z,1.4
2023-04-01T11:50:16.688Z,1.6
2023-04-01T11:56:06.998Z,1.2
2023-04-01T12:02:02.624Z,1.4
2023-04-01T12:08:00.509Z,1.4
2023-04-01T12:13:47.851Z,1.6
2023-04-01T12:19:39.041Z,1.2
2023-04-01T12:25:27.311Z,1.1
2023-04-01T12:31:18.581Z,1
2023-04-01T12:37:07.826Z,1.5
2023-04-01T12:43:03.179Z,1.1
2023-04-01T12:48:58.486Z,1.1
2023-04-01T12:54:57.517Z,1.5
2023-04-01T13:00:53.023Z,0.7
2023-04-01T13:06:48.302Z,1.3
2023-04-01T13:12:40.749Z,0.9
2023-04-01T13:18:32.340Z,0.8
2023-04-01T13:24:22.983Z,1
2023-04-01T13:30:22.036Z,0.8
2023-04-01T13:36:12.132Z,1.1
2023-04-01T13:42:03.774Z,0.7
2023-04-01T13:48:00.063Z,1
2023-04-01T13:53:57.602Z,0.8
2023-04-01T13:59:51.658Z,1
2023-04-01T14:05:46.438Z,1.6
2023-04-01T14:11:35.205Z,1.3
2023-04-01T14:17:25.866Z,1.6
2023-04-01T14:23:19.731Z,1.7
2023-04-01T14:29:07.117Z,1.1
2023-04-01T14:35:08.502Z,1.3
2023-04-01T14:40:58.142Z,2.1
2023-04-01T14:46:56.494Z,1.4
2023-04-01T14:52:42.935Z,1
2023-04-01T14:58:29.610Z,1.7
2023-04-01T15:04:20.407Z,1.2
2023-04-01T15:10:12.279Z,0.9
2023-04-01T15:16:06.312Z,1.3
2023-04-01T15:22:01.295Z,1.3
2023-04-01T15:27:51.153Z,1.2
2023-04-01T15:33:52.302Z,0.9
2023-04-01T15:39:43.408Z,1.2
2023-04-01T15:45:36.124Z,1
2023-04-01T15:51:25.787Z,1.8
2023-04-01T15:57:19.716Z,1.2
2023-04-01T16:03:15.496Z,0.6
2023-04-01T16:09:08.475Z,1.5
2023-04-01T16:14:58.442Z,0.5
2023-04-01T16:20:54.118Z,0.8
2023-04-01T16:26:41.229Z,1.3
2023-04-01T16:32:35.379Z,0.7
2023-04-01T16:38:24.914Z,1.2
2023-04-01T16:44:22.139Z,0.6
2023-04-01T16:50:10.338Z,1.3
2023-04-01T16:55:57.375Z,0.8
2023-04-01T17:01:47.880Z,1.1
2023-04-01T17:07:36.390Z,0.8
2023-04-01T17:13:28.856Z,0.8
2023-04-01T17:19:18.600Z,1.2
2023-04-01T17:25:09.962Z,0.9
2023-04-01T17:30:56.540Z,1.2
2023-04-01T17:36:48.614Z,0.9
2023-04-01T17:42:37.655Z,1.2
2023-04-01T17:48:28.912Z,0.8
2023-04-01T17:54:19.020Z,0.9
2023-04-01T18:00:05.751Z,1.3
2023-04-01T18:05:55.917Z,1.4
2023-04-01T18:11:47.011Z,1.3
2023-04-01T18:17:37.803Z,0.8
2023-04-01T18:23:25.865Z,1
2023-04-01T18:29:15.374Z,1.6
2023-04-01T18:35:04.467Z,1.1
2023-04-01T18:40:52.667Z,1.6
2023-04-01T18:46:42.596Z,1
2023-04-01T18:52:30.174Z,1.9
2023-04-01T18:58:17.375Z,1.6
2023-04-01T19:04:04.859Z,1.4
2023-04-01T19:09:52.469Z,2.2
2023-04-01T19:15:43.793Z,1
2023-04-01T19:21:30.984Z,1.8
2023-04-01T19:27:19.224Z,1.6
2023-04-01T19:33:08.548Z,2.7
2023-04-01T19:39:02.457Z,2.5
2023-04-01T19:44:52.892Z,1.5
2023-04-01T19:50:42.878Z,2.2
2023-04-01T19:56:27.646Z,1.8
2023-04-01T20:02:18.102Z,1.5
2023-04-01T20:08:04.106Z,1.5
2023-04-01T20:13:52.258Z,2
2023-04-01T20:19:39.450Z,2.1
2023-04-01T20:25:26.105Z,2.1
2023-04-01T20:31:17.286Z,3.4
2023-04-01T20:37:13.762Z,3.3
2023-04-01T20:43:06.170Z,3.2
2023-04-01T20:49:06.670Z,3.3
2023-04-01T20:55:01.969Z,2.8
2023-04-01T21:00:53.602Z,2.8
2023-04-01T21:06:47.674Z,2.6
2023-04-01T21:12:38.003Z,2.7
2023-04-01T21:18:29.066Z,2.9
2023-04-01T21:24:23.168Z,2.5
2023-04-01T21:30:13.269Z,3.2
2023-04-01T21:36:01.134Z,4.2
2023-04-01T21:41:56.188Z,4.4
2023-04-01T21:47:51.929Z,4.3
2023-04-01T21:53:54.146Z,4
2023-04-01T21:59:52.107Z,4.4
2023-04-01T22:05:39.627Z,3.7
2023-04-01T22:11:29.030Z,5.2
2023-04-01T22:17:17.990Z,4
2023-04-01T22:23:06.098Z,5.1
2023-04-01T22:28:53.626Z,4.5
2023-04-01T22:34:42.991Z,5
2023-04-01T22:40:31.974Z,5.7
2023-04-01T22:46:28.308Z,6.4
2023-04-01T22:52:16.839Z,6.2
2023-04-01T22:58:03.691Z,5.6
2023-04-01T23:03:50.414Z,6.6
2023-04-01T23:09:35.845Z,5.1
2023-04-01T23:15:20.392Z,7.3
2023-04-01T23:21:11.381Z,6.8
2023-04-01T23:26:59.029Z,6.5
2023-04-01T23:32:44.051Z,5.6
2023-04-01T23:38:30.751Z,5.2
2023-04-01T23:44:17.662Z,5.6
2023-04-01T23:50:06.739Z,5.4
2023-04-01T23:55:51.079Z,4.5
